Time;durP1;ratioP1;P1;durP2;ratioP2;P2;SDS_P1;SDS_P2;PMS_P1;PMS_P2;Temp;Humidity;BMP_temperature;BMP_pressure;BME280_temperature;BME280_humidity;BME280_pressure;Samples;Min_cycle;Max_cycle;Signal;HPM_P1;HPM_P2
2023/04/25 00:00:43;;;;;;;9.38;6.00;;;;;;;13.82;92.44;100338.84;5014860;28;20037;-91
2023/04/25 00:03:08;;;;;;;9.77;5.80;;;;;;;13.89;92.34;100354.88;5031971;28;20457;-90
2023/04/25 00:05:34;;;;;;;11.27;6.05;;;;;;;13.88;92.53;100354.03;5030890;28;20437;-91
2023/04/25 00:08:00;;;;;;;8.50;5.53;;;;;;;13.88;92.72;100356.63;5014488;28;20025;-90
2023/04/25 00:10:25;;;;;;;10.40;7.53;;;;;;;13.88;92.75;100345.41;5030580;28;20076;-91
2023/04/25 00:12:51;;;;;;;9.73;6.63;;;;;;;13.91;92.46;100353.81;5014215;28;20030;-91
2023/04/25 00:15:17;;;;;;;11.32;6.68;;;;;;;13.92;92.62;100355.47;4998189;28;20025;-90
2023/04/25 00:17:43;;;;;;;7.57;5.63;;;;;;;13.98;91.56;100355.09;5013923;28;20099;-92
2023/04/25 00:20:09;;;;;;;8.20;5.90;;;;;;;13.90;91.40;100352.16;5014300;28;20457;-91
2023/04/25 00:22:36;;;;;;;8.15;5.57;;;;;;;13.87;90.98;100339.38;5030534;28;20025;-91
2023/04/25 00:25:03;;;;;;;15.40;6.00;;;;;;;13.83;91.64;100348.28;5030241;28;20482;-90
2023/04/25 00:27:29;;;;;;;14.75;6.28;;;;;;;13.78;91.96;100335.63;5014176;28;20033;-90
2023/04/25 00:29:54;;;;;;;9.02;6.28;;;;;;;13.84;91.97;100346.53;5030680;28;20056;-91
2023/04/25 00:32:20;;;;;;;9.65;6.35;;;;;;;13.51;91.92;100292.44;5014235;28;20025;-91
2023/04/25 00:34:45;;;;;;;10.50;6.43;;;;;;;13.73;92.04;100340.28;5030520;28;20033;-91
2023/04/25 00:37:11;;;;;;;9.90;6.30;;;;;;;13.75;91.91;100332.38;5031450;28;20030;-91
2023/04/25 00:39:37;;;;;;;11.50;6.03;;;;;;;13.76;92.09;100339.22;4997628;28;20068;-91
2023/04/25 00:42:02;;;;;;;11.13;6.35;;;;;;;13.72;91.78;100327.38;5013760;28;20426;-90
2023/04/25 00:44:34;;;;;;;12.15;7.05;;;;;;;13.81;91.54;100338.94;5030235;28;20022;-90
2023/04/25 00:47:01;;;;;;;9.25;6.03;;;;;;;13.79;91.47;100328.66;5030998;28;20029;-91
2023/04/25 00:49:26;;;;;;;12.27;6.72;;;;;;;13.78;91.65;100320.00;5030587;28;20040;-90
2023/04/25 00:51:52;;;;;;;13.82;6.75;;;;;;;13.78;91.81;100333.00;5031398;28;20034;-91
2023/04/25 00:54:17;;;;;;;9.88;6.68;;;;;;;13.80;91.98;100329.47;4997255;28;20080;-91
2023/04/25 00:56:45;;;;;;;14.25;7.10;;;;;;;13.75;92.18;100321.97;4997501;28;20041;-91
2023/04/25 00:59:10;;;;;;;10.93;7.03;;;;;;;13.75;91.96;100322.81;4998283;28;20022;-90
2023/04/25 01:01:36;;;;;;;13.35;6.40;;;;;;;13.78;91.11;100321.78;5014014;28;20029;-92
2023/04/25 01:04:01;;;;;;;10.40;6.57;;;;;;;13.81;91.52;100325.94;4997558;28;20407;-90
2023/04/25 01:06:27;;;;;;;11.75;7.13;;;;;;;13.76;91.35;100318.44;5030384;28;20144;-91
2023/04/25 01:08:52;;;;;;;13.38;5.55;;;;;;;13.73;92.04;100319.47;5013501;28;20029;-91
2023/04/25 01:11:18;;;;;;;11.93;7.35;;;;;;;13.73;92.06;100318.66;5013911;28;20032;-90
2023/04/25 01:13:43;;;;;;;7.57;5.65;;;;;;;13.68;91.93;100308.56;5014104;28;20083;-90
2023/04/25 01:16:09;;;;;;;10.05;6.40;;;;;;;13.74;91.74;100326.34;5013734;28;20025;-92
2023/04/25 01:18:34;;;;;;;10.43;6.97;;;;;;;13.76;91.98;100318.44;4997240;28;20050;-91
2023/04/25 01:21:18;;;;;;;9.07;6.10;;;;;;;13.69;91.98;100301.59;5013880;28;20030;-93
2023/04/25 01:23:43;;;;;;;9.77;6.05;;;;;;;13.64;91.99;100286.28;5013468;28;20032;-91
2023/04/25 01:26:09;;;;;;;9.27;6.47;;;;;;;13.76;92.25;100300.22;5030170;28;20026;-92
2023/04/25 01:28:35;;;;;;;8.77;6.05;;;;;;;13.69;92.17;100301.59;5030369;28;20082;-91
2023/04/25 01:31:00;;;;;;;14.80;7.40;;;;;;;13.63;92.21;100296.81;5016473;28;20033;-92
2023/04/25 01:33:26;;;;;;;10.55;7.65;;;;;;;13.65;92.84;100305.31;5017120;28;20033;-91
2023/04/25 01:35:51;;;;;;;15.52;6.63;;;;;;;13.62;92.59;100297.75;5033641;28;20475;-91
2023/04/25 01:38:17;;;;;;;11.43;5.82;;;;;;;13.62;92.72;100292.53;5000607;28;20435;-91
2023/04/25 01:40:42;;;;;;;10.75;6.80;;;;;;;13.46;91.81;100277.94;5000459;28;20079;-90
2023/04/25 01:43:10;;;;;;;8.85;6.35;;;;;;;13.61;92.38;100306.47;5000851;28;20529;-92
2023/04/25 01:45:39;;;;;;;13.05;6.78;;;;;;;13.59;92.10;100310.94;5001651;28;20025;-90
2023/04/25 01:48:04;;;;;;;10.90;7.03;;;;;;;13.49;92.25;100295.97;5017539;28;20116;-91
2023/04/25 01:50:30;;;;;;;13.93;7.30;;;;;;;13.49;92.33;100301.16;5016734;28;20036;-91
2023/04/25 01:52:55;;;;;;;10.63;6.15;;;;;;;13.44;92.72;100297.19;5017171;28;20129;-92
2023/04/25 01:55:21;;;;;;;12.77;7.75;;;;;;;13.52;93.09;100299.28;5033440;28;20540;-90
2023/04/25 01:57:46;;;;;;;13.63;8.23;;;;;;;13.39;92.63;100281.91;5000702;28;20506;-92
2023/04/25 02:00:12;;;;;;;10.10;6.50;;;;;;;13.32;92.93;100272.84;5033077;28;20079;-92
2023/04/25 02:02:38;;;;;;;9.57;6.63;;;;;;;13.49;92.86;100298.56;5049409;28;20029;-91
2023/04/25 02:05:03;;;;;;;11.43;7.45;;;;;;;13.45;93.03;100296.25;5032806;28;20025;-91
2023/04/25 02:07:29;;;;;;;8.73;5.93;;;;;;;13.50;93.18;100302.00;5033170;28;20021;-91
2023/04/25 02:09:54;;;;;;;12.38;8.00;;;;;;;13.47;93.03;100297.84;5016518;28;20475;-90
2023/04/25 02:12:20;;;;;;;11.38;6.93;;;;;;;13.45;92.85;100291.88;5016964;28;20056;-91
2023/04/25 02:14:45;;;;;;;11.90;6.85;;;;;;;13.40;92.68;100282.75;5016394;28;20025;-90
2023/04/25 02:17:12;;;;;;;11.48;7.68;;;;;;;13.51;91.55;100292.44;5032960;28;20056;-92
2023/04/25 02:19:38;;;;;;;13.18;7.13;;;;;;;13.49;91.45;100284.72;5016461;28;20026;-92
2023/04/25 02:22:03;;;;;;;13.07;7.75;;;;;;;13.51;91.50;100284.63;5016221;28;21063;-91
2023/04/25 02:24:29;;;;;;;15.50;8.40;;;;;;;13.46;91.02;100283.16;5033735;28;20032;-92
2023/04/25 02:26:55;;;;;;;13.93;7.45;;;;;;;13.45;91.21;100284.09;5016291;28;20566;-93
2023/04/25 02:29:21;;;;;;;10.85;6.70;;;;;;;13.41;91.29;100277.44;5016283;28;20032;-90
2023/04/25 02:31:46;;;;;;;11.63;7.45;;;;;;;13.37;91.34;100283.78;5016227;28;20065;-91
2023/04/25 02:34:12;;;;;;;12.10;8.25;;;;;;;13.37;91.39;100286.38;5032009;28;20025;-91
2023/04/25 02:36:37;;;;;;;15.88;9.15;;;;;;;13.25;90.97;100268.16;5016113;28;20080;-91
2023/04/25 02:39:03;;;;;;;10.30;7.00;;;;;;;13.30;90.60;100268.69;5032182;28;20087;-89
2023/04/25 02:41:28;;;;;;;12.82;7.85;;;;;;;13.39;90.45;100273.28;5032144;28;20056;-89
2023/04/25 02:43:54;;;;;;;13.18;7.85;;;;;;;13.38;90.18;100276.81;5032510;28;20033;-93
2023/04/25 02:46:19;;;;;;;11.00;7.03;;;;;;;13.39;90.42;100278.47;4999745;28;20087;-92
2023/04/25 02:48:45;;;;;;;11.77;7.38;;;;;;;13.35;90.37;100277.84;4999253;28;20124;-90
2023/04/25 02:51:10;;;;;;;11.13;6.80;;;;;;;13.34;91.09;100281.38;4999421;28;20025;-90
2023/04/25 02:53:36;;;;;;;13.45;7.78;;;;;;;13.29;91.39;100278.25;4999303;28;20018;-90
2023/04/25 02:56:01;;;;;;;13.68;7.45;;;;;;;13.16;91.02;100256.56;5015929;28;20037;-91
2023/04/25 02:58:27;;;;;;;11.73;6.45;;;;;;;13.20;91.05;100273.66;5031919;28;20033;-91
2023/04/25 03:00:52;;;;;;;11.98;7.22;;;;;;;13.19;91.14;100279.78;5015865;28;20606;-93
2023/04/25 03:03:21;;;;;;;11.20;7.63;;;;;;;13.21;91.55;100283.13;5015190;28;20037;-91
2023/04/25 03:05:47;;;;;;;11.88;7.97;;;;;;;13.20;90.80;100268.47;5002111;28;20037;-90
2023/04/25 03:08:12;;;;;;;10.57;7.20;;;;;;;13.28;91.17;100276.59;5014795;28;20458;-88
2023/04/25 03:10:38;;;;;;;12.32;7.47;;;;;;;13.18;91.60;100275.50;4998321;28;20505;-89
2023/04/25 03:13:03;;;;;;;13.20;7.90;;;;;;;13.32;90.57;100265.06;5030943;28;20483;-89
2023/04/25 03:15:29;;;;;;;14.43;8.35;;;;;;;13.32;89.98;100267.66;5014572;28;20095;-89
2023/04/25 03:17:54;;;;;;;12.10;7.60;;;;;;;13.36;90.31;100268.28;5014603;28;20058;-89
2023/04/25 03:20:20;;;;;;;13.65;8.30;;;;;;;13.35;89.85;100264.84;5031232;28;20021;-89
2023/04/25 03:22:45;;;;;;;10.55;6.07;;;;;;;13.39;89.20;100244.72;5030896;28;20040;-91
2023/04/25 03:25:11;;;;;;;11.80;8.35;;;;;;;13.31;89.24;100242.59;5014461;28;20056;-90
2023/04/25 03:27:36;;;;;;;10.70;7.30;;;;;;;13.40;89.50;100270.59;5030995;28;20099;-90
2023/04/25 03:30:02;;;;;;;13.35;8.45;;;;;;;13.38;89.94;100276.81;5031025;28;20022;-90
2023/04/25 03:32:28;;;;;;;10.35;7.03;;;;;;;13.23;90.92;100263.06;5030414;28;20032;-89
2023/04/25 03:34:53;;;;;;;12.02;7.43;;;;;;;13.10;90.06;100231.84;4998000;28;20040;-90
2023/04/25 03:37:18;;;;;;;14.65;8.80;;;;;;;13.42;90.28;100279.09;5014383;28;20040;-90
2023/04/25 03:39:44;;;;;;;14.70;9.73;;;;;;;13.51;90.04;100282.84;5014361;28;20509;-90
2023/04/25 03:42:09;;;;;;;15.45;7.88;;;;;;;13.44;90.05;100273.78;5014291;28;20033;-89
2023/04/25 03:44:35;;;;;;;12.10;7.00;;;;;;;13.41;90.36;100272.25;5029122;28;20091;-88
2023/04/25 03:47:00;;;;;;;18.52;7.85;;;;;;;13.46;90.46;100271.91;5013205;28;20029;-90
2023/04/25 03:49:26;;;;;;;12.82;7.85;;;;;;;13.49;89.23;100264.78;5030637;28;20045;-90
2023/04/25 03:51:52;;;;;;;11.77;6.88;;;;;;;13.52;89.38;100278.50;5020460;28;20075;-90
2023/04/25 03:54:17;;;;;;;11.55;7.38;;;;;;;13.28;89.50;100249.78;5030408;28;20388;-89
2023/04/25 03:56:42;;;;;;;12.70;6.88;;;;;;;13.47;88.61;100278.81;5031100;28;20036;-90
2023/04/25 03:59:08;;;;;;;15.63;9.35;;;;;;;15.54;79.61;100275.47;5012362;28;20028;-90
2023/04/25 04:01:33;;;;;;;19.02;11.20;;;;;;;16.66;72.29;100263.25;5012408;28;20036;-89
2023/04/25 04:03:59;;;;;;;16.60;8.65;;;;;;;16.54;73.45;100274.69;5030246;28;20032;-90
2023/04/25 04:06:25;;;;;;;18.10;9.93;;;;;;;16.28;73.73;100261.88;5030356;28;20041;-87
2023/04/25 04:08:50;;;;;;;18.13;9.73;;;;;;;15.84;74.34;100260.13;5013587;28;20144;-87
2023/04/25 04:11:16;;;;;;;17.90;9.75;;;;;;;15.49;75.98;100245.34;5030088;28;20495;-85
2023/04/25 04:13:41;;;;;;;18.20;9.60;;;;;;;15.20;76.85;100250.13;5029601;28;20033;-87
2023/04/25 04:16:07;;;;;;;16.45;9.98;;;;;;;15.25;77.50;100283.66;5029071;28;20025;-89
2023/04/25 04:18:33;;;;;;;25.67;10.23;;;;;;;14.81;78.04;100266.06;5014155;28;20045;-88
2023/04/25 04:20:59;;;;;;;19.13;10.38;;;;;;;14.56;79.39;100278.25;5026544;28;20022;-92
2023/04/25 04:23:28;;;;;;;16.73;8.15;;;;;;;14.43;80.22;100277.38;5030788;28;20046;-91
2023/04/25 04:25:54;;;;;;;13.70;8.23;;;;;;;14.23;81.14;100275.34;4995159;28;20041;-83
2023/04/25 04:28:20;;;;;;;13.80;8.85;;;;;;;14.01;82.61;100282.03;5022093;28;20029;-91
2023/04/25 04:30:45;;;;;;;22.10;11.68;;;;;;;13.91;83.84;100283.59;5013711;28;20079;-89
2023/04/25 04:33:11;;;;;;;15.02;7.38;;;;;;;13.81;84.38;100279.97;4994269;28;20029;-88
2023/04/25 04:35:37;;;;;;;13.40;7.00;;;;;;;13.61;85.40;100260.53;5039572;28;20028;-90
2023/04/25 04:38:03;;;;;;;10.75;6.82;;;;;;;13.57;85.77;100260.81;5037732;28;20034;-82
2023/04/25 04:40:30;;;;;;;12.52;6.70;;;;;;;13.58;86.90;100272.91;5012166;28;20033;-83
2023/04/25 04:42:57;;;;;;;14.60;7.53;;;;;;;13.67;87.48;100285.28;5012430;28;20134;-83
2023/04/25 04:45:22;;;;;;;16.13;9.80;;;;;;;13.67;87.55;100286.13;5028469;28;20025;-85
2023/04/25 04:47:48;;;;;;;15.55;8.45;;;;;;;13.73;87.74;100288.28;5012522;28;20029;-85
2023/04/25 04:50:14;;;;;;;12.95;8.07;;;;;;;13.67;88.00;100267.91;5027800;28;20446;-83
2023/04/25 04:52:40;;;;;;;11.13;7.45;;;;;;;13.79;87.88;100289.66;5018576;28;20056;-91
2023/04/25 04:55:06;;;;;;;11.70;7.53;;;;;;;13.75;87.86;100275.16;5031771;28;20022;-88
2023/04/25 04:57:32;;;;;;;13.77;8.82;;;;;;;13.87;87.39;100276.97;5016652;28;20096;-92
2023/04/25 04:59:58;;;;;;;20.52;10.68;;;;;;;13.92;86.70;100266.22;5021641;28;20134;-91
2023/04/25 05:02:23;;;;;;;15.85;8.45;;;;;;;13.65;84.68;100248.97;5020153;28;20057;-89
2023/04/25 05:04:50;;;;;;;12.57;7.07;;;;;;;13.78;86.12;100275.00;5045080;28;20021;-92
2023/04/25 05:07:15;;;;;;;12.68;7.53;;;;;;;13.80;86.24;100273.09;5014660;28;20120;-93
2023/04/25 05:09:41;;;;;;;14.95;8.70;;;;;;;13.81;86.74;100279.13;5036568;28;20034;-93
2023/04/25 05:12:06;;;;;;;11.13;6.72;;;;;;;13.83;87.59;100285.91;5035783;28;20026;-94
2023/04/25 05:14:32;;;;;;;15.00;7.80;;;;;;;13.83;87.95;100283.28;5016326;28;20041;-89
2023/04/25 05:16:58;;;;;;;13.75;7.78;;;;;;;13.88;88.16;100278.63;5017537;28;20040;-94
2023/04/25 05:19:23;;;;;;;14.05;8.20;;;;;;;13.87;87.82;100273.53;5021679;28;20030;-88
2023/04/25 05:21:49;;;;;;;13.70;7.45;;;;;;;13.91;87.57;100282.78;5015628;28;20132;-90
2023/04/25 05:24:14;;;;;;;13.23;7.43;;;;;;;13.92;88.05;100287.88;5016899;28;20025;-93
2023/04/25 05:26:40;;;;;;;13.13;7.97;;;;;;;13.91;90.15;100270.59;5021481;28;20029;-91
2023/04/25 05:29:05;;;;;;;11.43;6.60;;;;;;;13.95;89.94;100281.63;5039157;28;20417;-90
2023/04/25 05:31:31;;;;;;;11.50;7.00;;;;;;;13.97;90.93;100271.97;5020259;28;20055;-93
2023/04/25 05:33:57;;;;;;;10.77;7.43;;;;;;;14.07;90.76;100266.03;5045004;28;20040;-86
2023/04/25 05:36:22;;;;;;;13.82;8.20;;;;;;;14.05;89.77;100257.47;5031949;28;20483;-93
2023/04/25 05:38:48;;;;;;;14.57;9.02;;;;;;;14.07;92.66;100250.41;5034123;28;20037;-93
2023/04/25 05:41:13;;;;;;;10.38;7.30;;;;;;;14.38;90.99;100269.09;5042101;28;20044;-90
2023/04/25 05:43:39;;;;;;;11.52;6.95;;;;;;;14.52;87.15;100274.16;5047197;28;20016;-91
2023/04/25 05:46:04;;;;;;;12.40;7.65;;;;;;;14.88;87.97;100282.91;5041740;28;20045;-92
2023/04/25 05:48:30;;;;;;;10.88;5.72;;;;;;;14.81;83.69;100261.69;5032820;28;20041;-93
2023/04/25 05:50:55;;;;;;;10.02;7.00;;;;;;;14.81;82.54;100281.69;5038756;28;20561;-92
2023/04/25 05:53:21;;;;;;;12.23;6.47;;;;;;;14.57;83.35;100264.28;5035134;28;20025;-86
2023/04/25 05:55:47;;;;;;;10.32;6.68;;;;;;;14.61;83.08;100278.72;4992623;28;20053;-85
2023/04/25 05:58:12;;;;;;;9.23;6.47;;;;;;;14.49;83.27;100274.41;5008091;28;20463;-87
2023/04/25 06:00:38;;;;;;;9.50;6.43;;;;;;;14.58;82.68;100281.56;5032067;28;20041;-89
2023/04/25 06:03:03;;;;;;;8.75;4.30;;;;;;;14.37;80.33;100246.63;5010884;28;20659;-93
2023/04/25 06:05:29;;;;;;;6.15;3.92;;;;;;;14.33;80.74;100250.34;5020701;28;20514;-89
2023/04/25 06:07:54;;;;;;;6.45;4.10;;;;;;;14.42;81.20;100269.69;5032569;28;20044;-90
2023/04/25 06:10:20;;;;;;;5.25;3.25;;;;;;;14.41;81.18;100283.66;5026176;28;20030;-91
2023/04/25 06:12:45;;;;;;;4.00;2.75;;;;;;;14.44;80.64;100289.47;5025760;28;20034;-93
2023/04/25 06:15:11;;;;;;;3.95;2.08;;;;;;;14.37;79.01;100296.06;5025174;28;20049;-91
2023/04/25 06:17:36;;;;;;;3.22;1.95;;;;;;;14.41;79.62;100281.88;5028369;28;20053;-91
2023/04/25 06:20:03;;;;;;;10.60;2.47;;;;;;;14.40;80.25;100276.78;4998255;28;20479;-88
2023/04/25 06:22:29;;;;;;;5.47;3.13;;;;;;;14.59;79.88;100308.41;5013728;28;20061;-90
2023/04/25 06:24:57;;;;;;;7.85;5.45;;;;;;;14.52;80.32;100287.19;5013865;28;20041;-93
2023/04/25 06:27:22;;;;;;;6.95;5.15;;;;;;;14.51;79.89;100300.31;5028069;28;20018;-90
2023/04/25 06:29:48;;;;;;;5.90;2.35;;;;;;;14.58;79.11;100307.59;5012098;28;20033;-90
2023/04/25 06:32:13;;;;;;;6.32;3.20;;;;;;;14.39;80.52;100273.34;5008867;28;20483;-89
2023/04/25 06:34:38;;;;;;;5.75;2.80;;;;;;;14.59;79.49;100311.03;5008480;28;20575;-90
2023/04/25 06:37:04;;;;;;;8.48;2.78;;;;;;;14.62;79.45;100303.00;4999527;28;20037;-90
2023/04/25 06:39:29;;;;;;;7.03;4.25;;;;;;;14.62;80.19;100309.03;5009938;28;20034;-86
2023/04/25 06:41:55;;;;;;;19.45;7.30;;;;;;;14.69;78.10;100316.41;5014474;28;20037;-88
2023/04/25 06:44:22;;;;;;;4.85;2.75;;;;;;;14.76;79.37;100312.44;5031104;28;20032;-88
2023/04/25 06:46:51;;;;;;;1.85;1.42;;;;;;;14.71;79.12;100309.31;4998820;28;20030;-94
2023/04/25 06:49:16;;;;;;;18.73;11.30;;;;;;;14.73;77.85;100304.81;5008180;28;20033;-92
2023/04/25 06:51:42;;;;;;;15.68;8.48;;;;;;;14.76;78.70;100307.22;5016094;28;20038;-92
2023/04/25 06:54:07;;;;;;;10.70;6.03;;;;;;;14.63;78.60;100274.25;4985825;28;20062;-86
2023/04/25 06:56:32;;;;;;;2.30;1.42;;;;;;;14.83;76.87;100291.03;5027500;28;20518;-87
2023/04/25 06:59:00;;;;;;;2.78;1.60;;;;;;;14.97;75.74;100303.09;5030517;28;20442;-87
2023/04/25 07:01:25;;;;;;;2.00;1.13;;;;;;;14.98;75.58;100299.53;5024002;28;20025;-86
2023/04/25 07:03:51;;;;;;;1.73;1.05;;;;;;;15.14;74.97;100313.13;5015608;28;20029;-90
2023/04/25 07:06:16;;;;;;;2.60;1.52;;;;;;;15.15;73.72;100309.56;5031557;28;20056;-86
2023/04/25 07:08:41;;;;;;;4.75;1.70;;;;;;;15.35;72.81;100312.50;5016804;28;20057;-89
2023/04/25 07:11:07;;;;;;;2.50;1.25;;;;;;;15.31;72.73;100311.03;5025408;28;20411;-90
2023/04/25 07:13:32;;;;;;;2.65;1.30;;;;;;;15.29;74.14;100302.50;5011786;28;20029;-87
2023/04/25 07:15:58;;;;;;;9.77;4.38;;;;;;;15.24;72.39;100288.97;5025072;28;20137;-89
2023/04/25 07:18:24;;;;;;;6.63;1.80;;;;;;;15.44;71.90;100309.22;5012019;28;20297;-91
2023/04/25 07:20:49;;;;;;;2.30;1.55;;;;;;;15.52;72.82;100298.19;5024128;28;20487;-90
2023/04/25 07:23:15;;;;;;;2.90;1.60;;;;;;;15.52;69.88;100313.84;5033192;28;20128;-90
2023/04/25 07:25:40;;;;;;;3.85;2.20;;;;;;;15.35;69.81;100291.63;5033578;28;20033;-90
2023/04/25 07:28:06;;;;;;;2.45;1.58;;;;;;;15.39;70.87;100309.53;5013239;28;20025;-90
2023/04/25 07:30:31;;;;;;;6.18;2.50;;;;;;;15.36;72.10;100309.75;5019360;28;20034;-89
2023/04/25 07:32:57;;;;;;;15.35;7.07;;;;;;;15.41;73.13;100317.22;5019225;28;20080;-91
2023/04/25 07:35:22;;;;;;;5.30;2.20;;;;;;;15.53;72.38;100321.53;5027594;28;20095;-91
2023/04/25 07:37:47;;;;;;;4.43;1.77;;;;;;;15.53;71.92;100305.88;5012687;28;20040;-92
2023/04/25 07:40:15;;;;;;;3.95;2.20;;;;;;;15.59;72.52;100315.03;5028260;28;20057;-91
2023/04/25 07:42:40;;;;;;;4.15;1.58;;;;;;;15.69;70.11;100309.06;5011036;28;20522;-87
2023/04/25 07:45:06;;;;;;;2.85;1.67;;;;;;;15.65;71.85;100298.97;5012987;28;20058;-90
2023/04/25 07:47:32;;;;;;;1.90;1.23;;;;;;;15.70;72.23;100284.63;4998548;28;20029;-92
2023/04/25 07:49:57;;;;;;;6.18;2.95;;;;;;;15.86;69.26;100306.97;5016902;28;20033;-92
2023/04/25 07:52:23;;;;;;;2.17;1.10;;;;;;;15.89;66.80;100315.38;5013759;28;20053;-90
2023/04/25 07:54:48;;;;;;;2.55;1.58;;;;;;;15.79;65.74;100285.72;4998536;28;20026;-90
2023/04/25 07:57:14;;;;;;;13.18;7.93;;;;;;;15.98;67.65;100325.13;4997924;28;20410;-91
2023/04/25 07:59:39;;;;;;;2.35;1.42;;;;;;;16.04;64.20;100321.22;5024655;28;20032;-88
2023/04/25 08:02:05;;;;;;;1.15;0.70;;;;;;;15.84;63.72;100281.00;4986199;28;20254;-89
2023/04/25 08:04:30;;;;;;;1.95;1.02;;;;;;;16.05;65.45;100310.66;5010311;28;20103;-92
2023/04/25 08:06:56;;;;;;;1.42;1.00;;;;;;;16.22;64.52;100309.38;4983844;28;20494;-89
2023/04/25 08:09:21;;;;;;;1.35;0.80;;;;;;;16.34;62.96;100312.81;5011985;28;20026;-91
2023/04/25 08:11:47;;;;;;;1.70;1.02;;;;;;;16.20;64.52;100303.41;5020547;28;20032;-91
2023/04/25 08:14:13;;;;;;;0.90;0.70;;;;;;;16.34;62.79;100308.41;5003097;28;20037;-92
2023/04/25 08:16:39;;;;;;;3.88;1.27;;;;;;;16.29;62.22;100297.47;5020044;28;20491;-89
2023/04/25 08:19:04;;;;;;;1.88;1.10;;;;;;;16.45;62.53;100294.50;5023868;28;20055;-90
2023/04/25 08:21:31;;;;;;;1.88;1.00;;;;;;;16.63;63.62;100292.25;5031258;28;20056;-91
2023/04/25 08:23:57;;;;;;;2.03;1.10;;;;;;;16.95;62.41;100304.53;4990833;28;20047;-90
2023/04/25 08:26:24;;;;;;;1.73;0.90;;;;;;;17.18;59.92;100314.78;5008419;28;20037;-88
2023/04/25 08:28:49;;;;;;;2.38;1.20;;;;;;;17.10;59.40;100298.03;5028929;28;20029;-87
2023/04/25 08:31:15;;;;;;;1.65;0.90;;;;;;;17.16;58.60;100302.78;4987517;28;20120;-91
2023/04/25 08:33:40;;;;;;;1.38;0.75;;;;;;;16.91;59.06;100306.53;4995802;28;20030;-94
2023/04/25 08:36:06;;;;;;;4.05;2.25;;;;;;;17.06;60.61;100304.50;5015282;28;20495;-91
2023/04/25 08:38:31;;;;;;;1.83;1.20;;;;;;;16.96;59.54;100303.56;5015132;28;20981;-87
2023/04/25 08:40:57;;;;;;;0.88;0.75;;;;;;;16.95;59.83;100286.25;4996982;28;20503;-85
2023/04/25 08:43:22;;;;;;;2.50;1.35;;;;;;;16.68;60.27;100252.69;5002398;28;20491;-90
2023/04/25 08:45:48;;;;;;;46.85;19.23;;;;;;;17.02;61.34;100300.47;4998594;28;20763;-87
2023/04/25 08:48:15;;;;;;;13.43;7.43;;;;;;;16.98;60.51;100296.44;5017116;28;20018;-86
2023/04/25 08:50:51;;;;;;;1.08;0.60;;;;;;;17.10;61.83;100290.22;4996233;28;20029;-89
2023/04/25 08:53:19;;;;;;;1.15;0.73;;;;;;;17.11;57.12;100291.91;5001806;28;20030;-86
2023/04/25 08:55:46;;;;;;;2.92;1.02;;;;;;;17.03;56.51;100300.34;5003081;28;20050;-88
2023/04/25 08:58:11;;;;;;;1.15;0.63;;;;;;;16.95;56.04;100275.78;5017052;28;20029;-85
2023/04/25 09:00:36;;;;;;;1.00;0.65;;;;;;;17.20;56.78;100296.34;5015196;28;20030;-84
2023/04/25 09:03:02;;;;;;;1.85;1.20;;;;;;;17.32;55.25;100286.69;5013464;28;20029;-88
2023/04/25 09:05:28;;;;;;;5.75;1.20;;;;;;;17.58;54.19;100295.81;5002626;28;20491;-87
2023/04/25 09:07:54;;;;;;;1.15;0.88;;;;;;;17.94;55.27;100291.91;5012753;28;20026;-91
2023/04/25 09:10:19;;;;;;;2.55;0.88;;;;;;;18.00;52.25;100274.88;5006021;28;20582;-89
2023/04/25 09:12:45;;;;;;;1.48;0.95;;;;;;;18.19;53.80;100295.03;5015084;28;20105;-91
2023/04/25 09:15:11;;;;;;;1.63;0.57;;;;;;;18.09;54.50;100302.84;4994621;28;20076;-86
2023/04/25 09:17:40;;;;;;;1.80;1.15;;;;;;;18.04;53.14;100297.19;5010875;28;20042;-89
2023/04/25 09:20:07;;;;;;;2.28;1.40;;;;;;;18.03;55.85;100301.59;5019251;28;20467;-82
2023/04/25 09:22:34;;;;;;;1.30;0.95;;;;;;;18.11;52.61;100302.75;5010164;28;20052;-81
2023/04/25 09:25:02;;;;;;;1.60;0.93;;;;;;;18.15;52.02;100309.38;5012977;28;20034;-83
2023/04/25 09:27:28;;;;;;;3.80;1.52;;;;;;;18.09;53.53;100266.22;5012220;28;20022;-82
2023/04/25 09:30:00;;;;;;;3.15;2.10;;;;;;;18.30;52.04;100302.84;5012884;28;20049;-93
2023/04/25 09:32:25;;;;;;;3.17;0.70;;;;;;;18.15;53.41;100298.91;5013606;28;20118;-88
2023/04/25 09:34:55;;;;;;;2.10;1.42;;;;;;;18.15;53.07;100302.34;4996026;28;20192;-91
2023/04/25 09:37:24;;;;;;;5.88;1.45;;;;;;;18.25;53.79;100295.34;5016698;28;20411;-89
2023/04/25 09:39:52;;;;;;;1.27;1.05;;;;;;;18.41;53.08;100294.03;5001218;28;20036;-88
2023/04/25 09:42:17;;;;;;;0.88;0.73;;;;;;;18.27;52.67;100287.38;5014487;28;20033;-94
2023/04/25 09:44:46;;;;;;;1.52;0.95;;;;;;;18.05;51.37;100298.84;5032317;28;20064;-92
2023/04/25 09:47:13;;;;;;;2.97;1.75;;;;;;;18.01;53.36;100303.53;5010260;28;20030;-92
2023/04/25 09:49:42;;;;;;;0.80;0.70;;;;;;;17.89;52.59;100304.56;5011758;28;20126;-89
2023/04/25 09:52:07;;;;;;;2.40;1.33;;;;;;;17.74;53.94;100298.00;4995316;28;20025;-92
2023/04/25 09:54:33;;;;;;;0.88;0.65;;;;;;;17.31;54.04;100283.25;4993756;28;20120;-88
2023/04/25 09:56:58;;;;;;;2.40;1.50;;;;;;;17.09;55.80;100312.06;5014636;28;20025;-93
2023/04/25 09:59:24;;;;;;;1.45;1.02;;;;;;;16.57;57.05;100277.03;5015952;28;20029;-86
2023/04/25 10:01:52;;;;;;;0.43;0.38;;;;;;;16.46;59.94;100321.44;4998414;28;20056;-89
2023/04/25 10:04:24;;;;;;;0.68;0.60;;;;;;;15.98;62.02;100332.09;5011378;28;20121;-89
2023/04/25 10:06:53;;;;;;;5.18;0.82;;;;;;;15.66;65.46;100348.41;5012839;28;20009;-86
2023/04/25 10:09:20;;;;;;;1.60;1.10;;;;;;;15.45;65.71;100347.38;5016443;28;20124;-90
2023/04/25 10:11:47;;;;;;;2.55;1.10;;;;;;;15.25;69.03;100332.34;5015370;28;20029;-87
2023/04/25 10:14:13;;;;;;;0.68;0.57;;;;;;;15.09;70.23;100343.88;5033283;28;20121;-89
2023/04/25 10:16:39;;;;;;;0.60;0.60;;;;;;;14.64;72.12;100322.75;5029650;28;20033;-86
2023/04/25 10:19:04;;;;;;;0.75;0.70;;;;;;;14.67;73.89;100346.94;5013685;28;20053;-86
2023/04/25 10:21:30;;;;;;;1.55;0.85;;;;;;;14.38;76.19;100315.09;5002376;28;20040;-92
2023/04/25 10:23:55;;;;;;;1.65;0.93;;;;;;;14.33;76.97;100349.22;5012422;28;20490;-83
2023/04/25 10:26:21;;;;;;;1.48;1.13;;;;;;;14.14;78.06;100352.25;5010714;28;20112;-86
2023/04/25 10:29:05;;;;;;;6.03;4.15;;;;;;;14.10;79.50;100352.59;5010692;28;20080;-86
2023/04/25 10:31:31;;;;;;;1.67;1.05;;;;;;;13.54;80.49;100305.22;5010535;28;20029;-85
2023/04/25 10:33:56;;;;;;;7.10;1.10;;;;;;;13.78;82.11;100342.59;5009778;28;20033;-87
2023/04/25 10:36:22;;;;;;;0.82;0.65;;;;;;;13.78;82.80;100345.19;5012407;28;20030;-90
2023/04/25 10:38:50;;;;;;;0.85;0.80;;;;;;;13.69;82.98;100351.00;5012714;28;20037;-92
2023/04/25 10:41:18;;;;;;;0.93;0.73;;;;;;;13.76;83.25;100347.03;5010313;28;20036;-89
2023/04/25 10:43:44;;;;;;;1.13;0.98;;;;;;;13.67;83.40;100350.28;5009558;28;20042;-88
2023/04/25 10:46:26;;;;;;;2.33;0.77;;;;;;;13.87;82.00;100357.56;5016227;28;20400;-86
2023/04/25 10:48:52;;;;;;;2.57;0.67;;;;;;;13.64;81.59;100322.69;5013397;28;20033;-88
2023/04/25 10:51:21;;;;;;;0.88;0.80;;;;;;;13.96;80.56;100359.56;5009483;28;20030;-87
2023/04/25 10:54:02;;;;;;;0.82;0.55;;;;;;;13.94;79.63;100358.81;5010683;28;20059;-84
2023/04/25 10:56:31;;;;;;;1.85;1.05;;;;;;;13.78;80.18;100343.41;5007830;28;20041;-85
2023/04/25 10:59:18;;;;;;;1.17;0.82;;;;;;;13.82;79.83;100331.03;4997985;28;20058;-85
2023/04/25 11:01:45;;;;;;;0.70;0.70;;;;;;;13.88;79.23;100341.03;5004007;28;20133;-86
2023/04/25 11:04:23;;;;;;;0.60;0.60;;;;;;;13.95;77.40;100360.47;5009267;28;20033;-89
2023/04/25 11:07:04;;;;;;;0.75;0.70;;;;;;;14.07;78.63;100357.06;5010689;28;20028;-85
2023/04/25 11:09:29;;;;;;;1.00;0.68;;;;;;;13.90;74.99;100336.56;4995961;28;20104;-83
2023/04/25 11:11:58;;;;;;;1.05;0.70;;;;;;;14.16;75.95;100360.81;5029789;28;20029;-88
2023/04/25 11:14:24;;;;;;;0.40;0.40;;;;;;;14.21;75.55;100365.69;5015856;28;20113;-92
2023/04/25 11:16:57;;;;;;;0.73;0.45;;;;;;;14.27;75.05;100366.13;5013900;28;20033;-86